This is the latest recevied weather packets stored in our database for station/object YO9FTR-10. If no packets are shown the sender has not sent any weather packets the latest 10 day(s).
| Time | Temp. | Humidity | Pressure | Rain* | Wind** | Luminosity | Snow |
|---|---|---|---|---|---|---|---|
| 1777472599 | 8.89° C | 63% | 1022.9 hPa | - | - | - | - |
| 1777471696 | 9.44° C | 64% | 1022.8 hPa | - | - | - | - |
| 1777470793 | 10° C | 59% | 1022.8 hPa | - | - | - | - |
| 1777469890 | 10° C | 57% | 1022.8 hPa | - | - | - | - |
| 1777468987 | 11.67° C | 53% | 1022.7 hPa | - | - | - | - |
| 1777468085 | 11.67° C | 53% | 1022.7 hPa | - | - | - | - |
| 1777467182 | 11.11° C | 56% | 1022.9 hPa | - | - | - | - |
| 1777466279 | 10.56° C | 56% | 1022.8 hPa | - | - | - | - |
| 1777465376 | 11.11° C | 54% | 1022.9 hPa | - | - | - | - |
| 1777464473 | 11.67° C | 49% | 1022.9 hPa | - | - | - | - |
| 1777463570 | 12.22° C | 49% | 1022.8 hPa | - | - | - | - |
| 1777462667 | 12.22° C | 50% | 1022.8 hPa | - | - | - | - |
| 1777461765 | 12.78° C | 48% | 1022.7 hPa | - | - | - | - |
| 1777460862 | 12.22° C | 51% | 1022.7 hPa | - | - | - | - |
| 1777459960 | 11.11° C | 48% | 1022.9 hPa | - | - | - | - |
| 1777459056 | 13.33° C | 44% | 1022.9 hPa | - | - | - | - |
| 1777458153 | 11.67° C | 46% | 1023.1 hPa | - | - | - | - |
| 1777457250 | 12.22° C | 44% | 1023.2 hPa | - | - | - | - |
| 1777456348 | 12.78° C | 44% | 1023.1 hPa | - | - | - | - |
| 1777455445 | 11.11° C | 46% | 1023.2 hPa | - | - | - | - |
| 1777454542 | 11.11° C | 48% | 1023.2 hPa | - | - | - | - |
| 1777453640 | 11.11° C | 47% | 1023.3 hPa | - | - | - | - |
| 1777452736 | 11.11° C | 46% | 1023.2 hPa | - | - | - | - |
| 1777451833 | 11.67° C | 46% | 1023.2 hPa | - | - | - | - |
| 1777450931 | 10.56° C | 46% | 1023.2 hPa | - | - | - | - |
* Rain since midnight (hover to see other rain measurements)
** Current wind speed in m/s (hover to see current wind gust speed)